createdAt,value
2019-05-11T00:01:17.369Z,7.50
2019-05-11T00:05:23.605Z,7.50
2019-05-11T00:09:29.999Z,7.60
2019-05-11T00:13:36.288Z,7.60
2019-05-11T00:17:42.570Z,7.60
2019-05-11T00:21:48.830Z,7.60
2019-05-11T00:25:55.086Z,7.50
2019-05-11T00:30:01.434Z,7.40
2019-05-11T00:34:07.863Z,7.30
2019-05-11T00:38:14.121Z,7.30
2019-05-11T00:42:20.358Z,7.30
2019-05-11T00:46:26.610Z,7.20
2019-05-11T00:50:39.412Z,7.10
2019-05-11T00:54:40.751Z,7.10
2019-05-11T00:58:47.009Z,7.10
2019-05-11T01:02:53.309Z,7.00
2019-05-11T01:06:59.565Z,6.90
2019-05-11T01:11:05.845Z,6.90
2019-05-11T01:15:12.456Z,6.90
2019-05-11T01:19:18.705Z,6.90
2019-05-11T01:23:24.957Z,6.70
2019-05-11T01:27:31.239Z,6.70
2019-05-11T01:31:37.485Z,6.70
2019-05-11T01:35:43.750Z,6.60
2019-05-11T01:39:49.998Z,6.60
2019-05-11T01:43:56.253Z,6.60
2019-05-11T01:48:02.530Z,6.50
2019-05-11T01:52:08.856Z,6.50
2019-05-11T01:56:15.057Z,6.50
2019-05-11T02:00:21.319Z,6.60
2019-05-11T02:04:27.573Z,6.60
2019-05-11T02:08:33.809Z,6.60
2019-05-11T02:12:40.162Z,6.60
2019-05-11T02:16:46.418Z,6.60
2019-05-11T02:20:52.700Z,6.60
2019-05-11T02:24:58.961Z,6.50
2019-05-11T02:29:05.398Z,6.50
2019-05-11T02:33:11.638Z,6.40
2019-05-11T02:37:18.016Z,6.30
2019-05-11T02:41:35.371Z,6.20
2019-05-11T02:45:38.510Z,6.10
2019-05-11T02:49:45.753Z,6.20
2019-05-11T02:53:52.939Z,6.10
2019-05-11T02:57:59.260Z,6.10
2019-05-11T03:02:05.542Z,6.10
2019-05-11T03:06:11.870Z,6.20
2019-05-11T03:10:18.143Z,6.20
2019-05-11T03:14:24.407Z,6.30
2019-05-11T03:18:30.711Z,6.30
2019-05-11T03:22:36.922Z,6.30
2019-05-11T03:26:43.170Z,6.30
2019-05-11T03:30:49.508Z,6.40
2019-05-11T03:34:55.763Z,6.40
2019-05-11T03:39:02.119Z,6.50
2019-05-11T03:43:08.411Z,6.50
2019-05-11T03:47:14.690Z,6.50
2019-05-11T03:51:20.932Z,6.60
2019-05-11T03:55:27.190Z,6.60
2019-05-11T03:59:33.436Z,6.70
2019-05-11T04:03:39.786Z,6.90
2019-05-11T04:07:46.046Z,7.00
2019-05-11T04:11:52.315Z,7.10
2019-05-11T04:15:58.574Z,7.20
2019-05-11T04:20:08.931Z,7.50
2019-05-11T04:24:15.180Z,8.00
2019-05-11T04:28:21.452Z,8.30
2019-05-11T04:32:27.700Z,8.60
2019-05-11T04:36:33.955Z,8.90
2019-05-11T04:40:40.194Z,9.00
2019-05-11T04:44:51.893Z,8.90
2019-05-11T04:48:55.230Z,9.00
2019-05-11T04:53:01.540Z,9.10
2019-05-11T04:57:07.796Z,9.20
2019-05-11T05:01:14.033Z,9.20
2019-05-11T05:05:20.275Z,9.30
2019-05-11T05:09:26.644Z,9.40
2019-05-11T05:13:32.997Z,9.40
2019-05-11T05:17:39.246Z,9.50
2019-05-11T05:21:45.510Z,9.60
2019-05-11T05:25:51.739Z,9.70
2019-05-11T05:29:57.997Z,9.90
2019-05-11T05:34:04.421Z,10.10
2019-05-11T05:38:10.689Z,10.30
2019-05-11T05:42:16.955Z,10.60
2019-05-11T05:46:23.192Z,10.70
2019-05-11T05:50:29.510Z,10.90
2019-05-11T05:54:35.754Z,11.10
2019-05-11T05:58:42.006Z,11.40
2019-05-11T06:02:48.265Z,11.60
2019-05-11T06:06:54.494Z,11.70
2019-05-11T06:11:00.752Z,11.60
2019-05-11T06:15:08.486Z,11.50
2019-05-11T06:19:14.690Z,11.40
2019-05-11T06:23:20.985Z,11.40
2019-05-11T06:27:27.250Z,11.40
2019-05-11T06:31:33.770Z,11.60
2019-05-11T06:35:40.027Z,11.80
2019-05-11T06:39:46.553Z,11.90
2019-05-11T06:44:01.247Z,11.80
2019-05-11T06:48:00.702Z,11.80
2019-05-11T06:52:06.936Z,11.70
2019-05-11T06:56:13.189Z,11.70
2019-05-11T07:00:19.690Z,11.80
2019-05-11T07:04:25.983Z,11.70
2019-05-11T07:08:32.229Z,11.50
2019-05-11T07:12:38.546Z,11.20
2019-05-11T07:16:44.798Z,10.90
2019-05-11T07:20:51.165Z,10.50
2019-05-11T07:24:58.283Z,10.50
2019-05-11T07:29:06.631Z,10.60
2019-05-11T07:33:12.905Z,10.70
2019-05-11T07:37:19.190Z,10.70
2019-05-11T07:41:28.095Z,10.80
2019-05-11T07:45:35.398Z,10.80
2019-05-11T07:49:41.678Z,10.80
2019-05-11T07:53:48.639Z,10.70
2019-05-11T07:57:55.086Z,10.60
2019-05-11T08:02:01.353Z,10.50
2019-05-11T08:06:08.834Z,10.40
2019-05-11T08:10:15.737Z,10.40
2019-05-11T08:14:22.634Z,10.40
2019-05-11T08:18:29.098Z,10.40
2019-05-11T08:22:37.570Z,10.40
2019-05-11T08:26:43.438Z,10.30
2019-05-11T08:30:49.702Z,10.10
2019-05-11T08:34:57.964Z,10.00
2019-05-11T08:39:07.736Z,9.90
2019-05-11T08:43:14.102Z,9.90
2019-05-11T08:47:20.342Z,9.80
2019-05-11T08:51:27.956Z,9.70
2019-05-11T08:55:35.297Z,9.60
2019-05-11T08:59:41.550Z,9.70
2019-05-11T09:03:48.002Z,9.70
2019-05-11T09:07:54.350Z,9.60
2019-05-11T09:12:00.599Z,9.50
2019-05-11T09:16:07.879Z,9.50
2019-05-11T09:20:15.070Z,9.30
2019-05-11T09:24:21.389Z,9.30
2019-05-11T09:28:29.457Z,9.30
2019-05-11T09:32:38.286Z,9.30
2019-05-11T09:36:43.919Z,9.40
2019-05-11T09:40:50.253Z,9.70
2019-05-11T09:44:57.733Z,9.80
2019-05-11T09:49:04.150Z,9.70
2019-05-11T09:53:10.412Z,9.60
2019-05-11T09:57:18.539Z,9.50
2019-05-11T10:01:24.555Z,9.40
2019-05-11T10:05:30.783Z,9.40
2019-05-11T10:09:38.336Z,9.40
2019-05-11T10:13:47.592Z,9.60
2019-05-11T10:17:53.442Z,9.70
2019-05-11T10:22:00.234Z,9.70
2019-05-11T10:26:07.971Z,9.50
2019-05-11T10:30:14.935Z,9.50
2019-05-11T10:34:21.510Z,9.70
2019-05-11T10:38:28.621Z,9.70
2019-05-11T10:42:35.154Z,9.70
2019-05-11T10:46:41.757Z,9.80
2019-05-11T10:50:48.496Z,9.90
2019-05-11T10:54:55.050Z,10.00
2019-05-11T10:59:01.377Z,10.10
2019-05-11T11:03:08.472Z,10.20
2019-05-11T11:07:17.213Z,10.30
2019-05-11T11:11:24.195Z,10.40
2019-05-11T11:15:31.041Z,10.50
2019-05-11T11:19:38.132Z,10.60
2019-05-11T11:23:45.190Z,10.90
2019-05-11T11:27:51.457Z,11.20
2019-05-11T11:31:58.808Z,11.50
2019-05-11T11:36:05.337Z,11.30
2019-05-11T11:40:13.971Z,11.10
2019-05-11T11:44:20.508Z,11.00
2019-05-11T11:48:28.709Z,11.00
2019-05-11T11:52:35.207Z,11.10
2019-05-11T11:56:43.161Z,11.30
2019-05-11T12:00:50.090Z,12.00
2019-05-11T12:04:58.270Z,12.80
2019-05-11T12:09:08.826Z,13.40
2019-05-11T12:13:15.250Z,13.80
2019-05-11T12:17:22.137Z,14.40
2019-05-11T12:21:28.448Z,15.00
2019-05-11T12:25:37.668Z,15.40
2019-05-11T12:29:42.589Z,15.40
2019-05-11T12:33:48.875Z,15.70
2019-05-11T12:37:55.073Z,16.10
2019-05-11T12:42:01.356Z,16.30
2019-05-11T12:46:08.211Z,16.50
2019-05-11T12:50:14.725Z,16.70
2019-05-11T12:54:20.986Z,17.60
2019-05-11T12:58:28.150Z,18.10
2019-05-11T13:02:35.399Z,18.60
2019-05-11T13:06:41.925Z,18.90
2019-05-11T13:10:48.186Z,18.50
2019-05-11T13:14:54.446Z,17.80
2019-05-11T13:19:00.706Z,17.10
2019-05-11T13:23:08.031Z,16.60
2019-05-11T13:27:14.474Z,16.60
2019-05-11T13:31:20.810Z,17.00
2019-05-11T13:35:28.522Z,17.40
2019-05-11T13:39:34.986Z,17.70
2019-05-11T13:43:41.241Z,17.40
2019-05-11T13:47:52.609Z,17.00
2019-05-11T13:51:55.358Z,17.40
2019-05-11T13:56:01.754Z,18.00
2019-05-11T14:00:08.749Z,18.20
2019-05-11T14:04:18.162Z,18.40
2019-05-11T14:08:23.941Z,19.00
2019-05-11T14:12:30.194Z,19.40
2019-05-11T14:16:37.914Z,19.10
2019-05-11T14:20:44.346Z,18.50
2019-05-11T14:24:50.602Z,18.00
2019-05-11T14:28:58.400Z,17.60
2019-05-11T14:33:05.779Z,17.50
2019-05-11T14:37:12.106Z,16.90
2019-05-11T14:41:18.470Z,17.10
2019-05-11T14:45:24.805Z,17.40
2019-05-11T14:49:31.075Z,17.50
2019-05-11T14:53:37.865Z,17.30
2019-05-11T14:57:44.366Z,17.30
2019-05-11T15:01:50.611Z,17.80
2019-05-11T15:05:58.228Z,18.50
2019-05-11T15:10:08.037Z,18.70
2019-05-11T15:14:14.397Z,18.10
2019-05-11T15:18:34.984Z,17.40
2019-05-11T15:22:28.790Z,17.00
2019-05-11T15:26:35.070Z,16.60
2019-05-11T15:30:41.331Z,16.30
2019-05-11T15:34:48.719Z,16.20
2019-05-11T15:38:58.208Z,16.40
2019-05-11T15:43:04.074Z,16.50
2019-05-11T15:47:10.405Z,16.60
2019-05-11T15:51:18.552Z,16.70
2019-05-11T15:55:24.535Z,16.60
2019-05-11T15:59:30.857Z,16.50
2019-05-11T16:03:37.138Z,16.20
2019-05-11T16:07:43.426Z,15.90
2019-05-11T16:11:49.685Z,15.60
2019-05-11T16:15:57.745Z,15.30
2019-05-11T16:20:08.601Z,15.20
2019-05-11T16:24:13.935Z,15.20
2019-05-11T16:28:20.186Z,15.20
2019-05-11T16:32:27.730Z,15.20
2019-05-11T16:36:34.044Z,15.10
2019-05-11T16:40:40.314Z,15.00
2019-05-11T16:44:48.311Z,14.90
2019-05-11T16:48:54.577Z,14.70
2019-05-11T16:53:00.933Z,14.50
2019-05-11T16:57:08.616Z,14.20
2019-05-11T17:01:15.005Z,13.90
2019-05-11T17:05:26.842Z,13.70
2019-05-11T17:09:29.155Z,13.50
2019-05-11T17:13:37.753Z,13.40
2019-05-11T17:17:44.507Z,13.30
2019-05-11T17:21:51.216Z,13.20
2019-05-11T17:25:57.966Z,13.10
2019-05-11T17:30:08.876Z,13.00
2019-05-11T17:34:18.506Z,13.00
2019-05-11T17:38:24.101Z,12.90
2019-05-11T17:42:30.352Z,12.70
2019-05-11T17:46:38.430Z,12.60
2019-05-11T17:50:45.010Z,12.50
2019-05-11T17:54:51.340Z,12.40
2019-05-11T17:58:58.450Z,12.30
2019-05-11T18:03:10.224Z,12.00
2019-05-11T18:07:25.167Z,11.80
2019-05-11T18:11:21.781Z,11.70
2019-05-11T18:15:28.049Z,11.40
2019-05-11T18:19:34.314Z,11.30
2019-05-11T18:23:40.578Z,11.20
2019-05-11T18:27:48.239Z,11.10
2019-05-11T18:31:57.949Z,11.10
2019-05-11T18:36:04.561Z,11.00
2019-05-11T18:40:11.273Z,11.00
2019-05-11T18:44:18.739Z,10.80
2019-05-11T18:48:25.138Z,10.70
2019-05-11T18:52:32.407Z,10.60
2019-05-11T18:56:38.671Z,10.60
2019-05-11T19:00:44.954Z,10.50
2019-05-11T19:04:51.286Z,10.50
2019-05-11T19:08:58.132Z,10.40
2019-05-11T19:13:04.505Z,10.10
2019-05-11T19:17:10.916Z,9.80
2019-05-11T19:21:18.025Z,9.60
2019-05-11T19:25:24.384Z,9.50
2019-05-11T19:29:30.686Z,9.50
2019-05-11T19:33:38.210Z,9.40
2019-05-11T19:37:44.730Z,9.30
2019-05-11T19:41:51.894Z,9.30
2019-05-11T19:45:58.489Z,9.30
2019-05-11T19:50:08.704Z,9.30
2019-05-11T19:54:18.581Z,9.20
2019-05-11T19:58:25.847Z,9.10
2019-05-11T20:02:32.924Z,9.00
2019-05-11T20:06:39.228Z,9.00
2019-05-11T20:10:45.531Z,8.90
2019-05-11T20:14:52.405Z,8.80
2019-05-11T20:19:00.670Z,8.80
2019-05-11T20:23:07.779Z,8.80
2019-05-11T20:27:14.965Z,8.70
2019-05-11T20:31:21.533Z,8.70
2019-05-11T20:35:28.519Z,8.70
2019-05-11T20:39:37.772Z,8.60
2019-05-11T20:43:43.467Z,8.60
2019-05-11T20:47:50.606Z,8.60
2019-05-11T20:51:58.163Z,8.50
2019-05-11T20:56:04.547Z,8.50
2019-05-11T21:00:11.336Z,8.50
2019-05-11T21:04:18.826Z,8.50
2019-05-11T21:08:25.185Z,8.50
2019-05-11T21:12:31.467Z,8.40
2019-05-11T21:16:38.644Z,8.30
2019-05-11T21:20:48.188Z,8.30
2019-05-11T21:24:54.050Z,8.30
2019-05-11T21:29:00.301Z,8.30
2019-05-11T21:33:08.667Z,8.20
2019-05-11T21:37:14.436Z,8.10
2019-05-11T21:41:20.694Z,8.10
2019-05-11T21:45:28.366Z,8.20
2019-05-11T21:49:34.894Z,8.20
2019-05-11T21:53:41.158Z,8.10
2019-05-11T21:57:49.693Z,8.10
2019-05-11T22:01:55.545Z,7.90
2019-05-11T22:06:01.814Z,7.90
2019-05-11T22:10:09.709Z,7.80
2019-05-11T22:14:15.992Z,7.70
2019-05-11T22:18:30.788Z,7.50
2019-05-11T22:22:30.182Z,7.50
2019-05-11T22:26:37.959Z,7.40
2019-05-11T22:30:44.337Z,7.30
2019-05-11T22:34:50.615Z,7.30
2019-05-11T22:38:58.799Z,7.30
2019-05-11T22:43:05.204Z,7.20
2019-05-11T22:47:11.453Z,7.20
2019-05-11T22:51:18.327Z,7.10
2019-05-11T22:55:24.785Z,7.10
2019-05-11T22:59:31.038Z,7.00
2019-05-11T23:03:38.296Z,7.10
2019-05-11T23:07:44.775Z,7.00
2019-05-11T23:11:51.038Z,7.00
2019-05-11T23:15:58.398Z,6.90
2019-05-11T23:20:08.518Z,6.90
2019-05-11T23:24:14.769Z,6.90
2019-05-11T23:28:22.166Z,6.80
2019-05-11T23:32:28.419Z,6.80
2019-05-11T23:36:34.654Z,6.80
2019-05-11T23:40:40.991Z,6.90
2019-05-11T23:44:48.377Z,6.80
2019-05-11T23:48:54.709Z,6.80
2019-05-11T23:53:06.462Z,6.80
2019-05-11T23:57:09.473Z,6.80
